sensor_id;sensor_type;location;lat;lon;timestamp;P1;durP1;ratioP1;P2;durP2;ratioP2
11238;SDS011;5677;48.488;13.436;2023-05-20T00:02:11;2.00;;;1.70;;
11238;SDS011;5677;48.488;13.436;2023-05-20T00:04:38;1.80;;;1.70;;
11238;SDS011;5677;48.488;13.436;2023-05-20T00:07:06;1.70;;;1.60;;
11238;SDS011;5677;48.488;13.436;2023-05-20T00:09:34;1.73;;;1.63;;
11238;SDS011;5677;48.488;13.436;2023-05-20T00:12:00;1.30;;;1.20;;
11238;SDS011;5677;48.488;13.436;2023-05-20T00:14:27;1.50;;;1.40;;
11238;SDS011;5677;48.488;13.436;2023-05-20T00:16:54;1.80;;;1.70;;
11238;SDS011;5677;48.488;13.436;2023-05-20T00:19:20;1.60;;;1.50;;
11238;SDS011;5677;48.488;13.436;2023-05-20T00:21:47;2.40;;;2.20;;
11238;SDS011;5677;48.488;13.436;2023-05-20T00:24:14;1.60;;;1.50;;
11238;SDS011;5677;48.488;13.436;2023-05-20T00:26:42;1.67;;;1.57;;
11238;SDS011;5677;48.488;13.436;2023-05-20T00:29:08;2.00;;;1.90;;
11238;SDS011;5677;48.488;13.436;2023-05-20T00:31:35;1.93;;;1.83;;
11238;SDS011;5677;48.488;13.436;2023-05-20T00:34:02;1.80;;;1.70;;
11238;SDS011;5677;48.488;13.436;2023-05-20T00:36:29;1.60;;;1.50;;
11238;SDS011;5677;48.488;13.436;2023-05-20T00:38:56;1.60;;;1.50;;
11238;SDS011;5677;48.488;13.436;2023-05-20T00:41:22;1.67;;;1.57;;
11238;SDS011;5677;48.488;13.436;2023-05-20T00:43:53;1.50;;;1.40;;
11238;SDS011;5677;48.488;13.436;2023-05-20T00:46:20;1.83;;;1.70;;
11238;SDS011;5677;48.488;13.436;2023-05-20T00:48:46;2.40;;;1.60;;
11238;SDS011;5677;48.488;13.436;2023-05-20T00:51:14;1.60;;;1.50;;
11238;SDS011;5677;48.488;13.436;2023-05-20T00:53:41;1.90;;;1.80;;
11238;SDS011;5677;48.488;13.436;2023-05-20T00:56:08;1.70;;;1.60;;
11238;SDS011;5677;48.488;13.436;2023-05-20T00:58:35;1.60;;;1.50;;
11238;SDS011;5677;48.488;13.436;2023-05-20T01:01:04;1.90;;;1.80;;
11238;SDS011;5677;48.488;13.436;2023-05-20T01:03:31;1.57;;;1.47;;
11238;SDS011;5677;48.488;13.436;2023-05-20T01:05:58;1.80;;;1.70;;
11238;SDS011;5677;48.488;13.436;2023-05-20T01:08:25;1.27;;;1.20;;
11238;SDS011;5677;48.488;13.436;2023-05-20T01:10:55;1.80;;;1.70;;
11238;SDS011;5677;48.488;13.436;2023-05-20T01:13:31;1.77;;;1.67;;
11238;SDS011;5677;48.488;13.436;2023-05-20T01:16:01;1.60;;;1.50;;
11238;SDS011;5677;48.488;13.436;2023-05-20T01:18:33;1.77;;;1.67;;
11238;SDS011;5677;48.488;13.436;2023-05-20T01:21:01;1.87;;;1.67;;
11238;SDS011;5677;48.488;13.436;2023-05-20T01:23:32;2.03;;;1.90;;
11238;SDS011;5677;48.488;13.436;2023-05-20T01:26:02;1.73;;;1.63;;
11238;SDS011;5677;48.488;13.436;2023-05-20T01:28:30;1.67;;;1.57;;
11238;SDS011;5677;48.488;13.436;2023-05-20T01:30:57;1.87;;;1.70;;
11238;SDS011;5677;48.488;13.436;2023-05-20T01:33:27;1.70;;;1.60;;
11238;SDS011;5677;48.488;13.436;2023-05-20T01:35:54;1.70;;;1.60;;
11238;SDS011;5677;48.488;13.436;2023-05-20T01:38:22;2.00;;;1.90;;
11238;SDS011;5677;48.488;13.436;2023-05-20T01:40:52;1.80;;;1.70;;
11238;SDS011;5677;48.488;13.436;2023-05-20T01:43:20;2.23;;;2.00;;
11238;SDS011;5677;48.488;13.436;2023-05-20T01:45:47;1.80;;;1.70;;
11238;SDS011;5677;48.488;13.436;2023-05-20T01:48:14;1.80;;;1.70;;
11238;SDS011;5677;48.488;13.436;2023-05-20T01:50:41;1.80;;;1.70;;
11238;SDS011;5677;48.488;13.436;2023-05-20T01:53:08;1.63;;;1.53;;
11238;SDS011;5677;48.488;13.436;2023-05-20T01:55:35;1.63;;;1.53;;
11238;SDS011;5677;48.488;13.436;2023-05-20T01:58:03;1.90;;;1.70;;
11238;SDS011;5677;48.488;13.436;2023-05-20T02:00:30;1.80;;;1.70;;
11238;SDS011;5677;48.488;13.436;2023-05-20T02:02:58;2.13;;;1.80;;
11238;SDS011;5677;48.488;13.436;2023-05-20T02:05:24;1.97;;;1.60;;
11238;SDS011;5677;48.488;13.436;2023-05-20T02:07:51;1.90;;;1.80;;
11238;SDS011;5677;48.488;13.436;2023-05-20T02:10:18;1.70;;;1.60;;
11238;SDS011;5677;48.488;13.436;2023-05-20T02:12:44;1.80;;;1.70;;
11238;SDS011;5677;48.488;13.436;2023-05-20T02:15:14;1.60;;;1.50;;
11238;SDS011;5677;48.488;13.436;2023-05-20T02:17:41;1.83;;;1.73;;
11238;SDS011;5677;48.488;13.436;2023-05-20T02:20:08;1.63;;;1.53;;
11238;SDS011;5677;48.488;13.436;2023-05-20T02:22:35;1.90;;;1.73;;
11238;SDS011;5677;48.488;13.436;2023-05-20T02:25:02;1.90;;;1.80;;
11238;SDS011;5677;48.488;13.436;2023-05-20T02:27:29;1.70;;;1.60;;
11238;SDS011;5677;48.488;13.436;2023-05-20T02:29:56;2.67;;;2.47;;
11238;SDS011;5677;48.488;13.436;2023-05-20T02:32:24;1.73;;;1.63;;
11238;SDS011;5677;48.488;13.436;2023-05-20T02:34:52;1.80;;;1.70;;
11238;SDS011;5677;48.488;13.436;2023-05-20T02:37:19;1.63;;;1.53;;
11238;SDS011;5677;48.488;13.436;2023-05-20T02:39:46;1.60;;;1.50;;
11238;SDS011;5677;48.488;13.436;2023-05-20T02:42:13;2.03;;;1.93;;
11238;SDS011;5677;48.488;13.436;2023-05-20T02:44:39;2.30;;;2.07;;
11238;SDS011;5677;48.488;13.436;2023-05-20T02:47:06;1.83;;;1.73;;
11238;SDS011;5677;48.488;13.436;2023-05-20T02:49:34;2.07;;;1.83;;
11238;SDS011;5677;48.488;13.436;2023-05-20T02:52:01;1.80;;;1.70;;
11238;SDS011;5677;48.488;13.436;2023-05-20T02:54:28;1.70;;;1.60;;
11238;SDS011;5677;48.488;13.436;2023-05-20T02:56:54;1.90;;;1.80;;
11238;SDS011;5677;48.488;13.436;2023-05-20T02:59:22;1.70;;;1.60;;
11238;SDS011;5677;48.488;13.436;2023-05-20T03:01:49;1.80;;;1.70;;
11238;SDS011;5677;48.488;13.436;2023-05-20T03:04:16;1.73;;;1.63;;
11238;SDS011;5677;48.488;13.436;2023-05-20T03:06:46;1.83;;;1.73;;
11238;SDS011;5677;48.488;13.436;2023-05-20T03:09:16;1.80;;;1.70;;
11238;SDS011;5677;48.488;13.436;2023-05-20T03:11:43;1.80;;;1.70;;
11238;SDS011;5677;48.488;13.436;2023-05-20T03:14:10;1.90;;;1.80;;
11238;SDS011;5677;48.488;13.436;2023-05-20T03:16:37;1.87;;;1.70;;
11238;SDS011;5677;48.488;13.436;2023-05-20T03:19:03;1.70;;;1.60;;
11238;SDS011;5677;48.488;13.436;2023-05-20T03:21:30;1.60;;;1.50;;
11238;SDS011;5677;48.488;13.436;2023-05-20T03:23:59;1.57;;;1.47;;
11238;SDS011;5677;48.488;13.436;2023-05-20T03:26:26;1.40;;;1.30;;
11238;SDS011;5677;48.488;13.436;2023-05-20T03:28:52;2.03;;;1.83;;
11238;SDS011;5677;48.488;13.436;2023-05-20T03:31:19;1.80;;;1.70;;
11238;SDS011;5677;48.488;13.436;2023-05-20T03:33:46;1.70;;;1.60;;
11238;SDS011;5677;48.488;13.436;2023-05-20T03:36:12;1.97;;;1.87;;
11238;SDS011;5677;48.488;13.436;2023-05-20T03:38:39;1.67;;;1.57;;
11238;SDS011;5677;48.488;13.436;2023-05-20T03:41:07;1.90;;;1.80;;
11238;SDS011;5677;48.488;13.436;2023-05-20T03:43:34;1.70;;;1.60;;
11238;SDS011;5677;48.488;13.436;2023-05-20T03:46:01;2.03;;;1.93;;
11238;SDS011;5677;48.488;13.436;2023-05-20T03:48:27;1.83;;;1.73;;
11238;SDS011;5677;48.488;13.436;2023-05-20T03:50:54;1.90;;;1.80;;
11238;SDS011;5677;48.488;13.436;2023-05-20T03:53:21;1.80;;;1.70;;
11238;SDS011;5677;48.488;13.436;2023-05-20T03:55:48;1.80;;;1.70;;
11238;SDS011;5677;48.488;13.436;2023-05-20T03:58:16;1.80;;;1.70;;
11238;SDS011;5677;48.488;13.436;2023-05-20T04:00:44;1.87;;;1.77;;
11238;SDS011;5677;48.488;13.436;2023-05-20T04:03:11;1.97;;;1.87;;
11238;SDS011;5677;48.488;13.436;2023-05-20T04:05:38;1.70;;;1.60;;
11238;SDS011;5677;48.488;13.436;2023-05-20T04:08:05;1.73;;;1.63;;
11238;SDS011;5677;48.488;13.436;2023-05-20T04:10:33;1.83;;;1.67;;
11238;SDS011;5677;48.488;13.436;2023-05-20T04:13:00;2.00;;;1.80;;
11238;SDS011;5677;48.488;13.436;2023-05-20T04:15:28;2.03;;;1.83;;
11238;SDS011;5677;48.488;13.436;2023-05-20T04:17:55;2.17;;;1.97;;
11238;SDS011;5677;48.488;13.436;2023-05-20T04:20:22;2.03;;;1.90;;
11238;SDS011;5677;48.488;13.436;2023-05-20T04:22:49;1.80;;;1.70;;
11238;SDS011;5677;48.488;13.436;2023-05-20T04:25:16;1.77;;;1.67;;
11238;SDS011;5677;48.488;13.436;2023-05-20T04:27:43;2.17;;;1.97;;
11238;SDS011;5677;48.488;13.436;2023-05-20T04:30:10;2.00;;;1.90;;
11238;SDS011;5677;48.488;13.436;2023-05-20T04:32:39;1.80;;;1.70;;
11238;SDS011;5677;48.488;13.436;2023-05-20T04:35:06;1.80;;;1.70;;
11238;SDS011;5677;48.488;13.436;2023-05-20T04:37:35;2.00;;;1.83;;
11238;SDS011;5677;48.488;13.436;2023-05-20T04:40:02;1.80;;;1.70;;
11238;SDS011;5677;48.488;13.436;2023-05-20T04:42:30;1.70;;;1.60;;
11238;SDS011;5677;48.488;13.436;2023-05-20T04:44:57;1.73;;;1.63;;
11238;SDS011;5677;48.488;13.436;2023-05-20T04:47:25;1.77;;;1.67;;
11238;SDS011;5677;48.488;13.436;2023-05-20T04:49:54;1.70;;;1.60;;
11238;SDS011;5677;48.488;13.436;2023-05-20T04:52:21;1.73;;;1.63;;
11238;SDS011;5677;48.488;13.436;2023-05-20T04:54:48;1.73;;;1.63;;
11238;SDS011;5677;48.488;13.436;2023-05-20T04:57:15;1.90;;;1.80;;
11238;SDS011;5677;48.488;13.436;2023-05-20T04:59:45;1.87;;;1.77;;
11238;SDS011;5677;48.488;13.436;2023-05-20T05:02:11;2.13;;;1.67;;
11238;SDS011;5677;48.488;13.436;2023-05-20T05:04:38;1.77;;;1.67;;
11238;SDS011;5677;48.488;13.436;2023-05-20T05:07:07;1.60;;;1.50;;
11238;SDS011;5677;48.488;13.436;2023-05-20T05:09:33;1.70;;;1.60;;
11238;SDS011;5677;48.488;13.436;2023-05-20T05:12:00;2.57;;;2.03;;
11238;SDS011;5677;48.488;13.436;2023-05-20T05:14:27;1.80;;;1.70;;
11238;SDS011;5677;48.488;13.436;2023-05-20T05:16:54;2.13;;;1.97;;
11238;SDS011;5677;48.488;13.436;2023-05-20T05:19:21;1.90;;;1.80;;
11238;SDS011;5677;48.488;13.436;2023-05-20T05:21:47;1.97;;;1.87;;
11238;SDS011;5677;48.488;13.436;2023-05-20T05:24:15;2.00;;;1.90;;
11238;SDS011;5677;48.488;13.436;2023-05-20T05:26:42;2.17;;;1.97;;
11238;SDS011;5677;48.488;13.436;2023-05-20T05:29:09;1.77;;;1.67;;
11238;SDS011;5677;48.488;13.436;2023-05-20T05:31:35;2.37;;;1.90;;
11238;SDS011;5677;48.488;13.436;2023-05-20T05:34:02;1.90;;;1.80;;
11238;SDS011;5677;48.488;13.436;2023-05-20T05:36:31;1.77;;;1.67;;
11238;SDS011;5677;48.488;13.436;2023-05-20T05:38:58;1.70;;;1.60;;
11238;SDS011;5677;48.488;13.436;2023-05-20T05:41:26;1.83;;;1.73;;
11238;SDS011;5677;48.488;13.436;2023-05-20T05:43:53;2.30;;;2.10;;
11238;SDS011;5677;48.488;13.436;2023-05-20T05:46:20;2.03;;;1.83;;
11238;SDS011;5677;48.488;13.436;2023-05-20T05:48:47;1.63;;;1.53;;
11238;SDS011;5677;48.488;13.436;2023-05-20T05:51:14;1.70;;;1.60;;
11238;SDS011;5677;48.488;13.436;2023-05-20T05:53:41;1.97;;;1.87;;
11238;SDS011;5677;48.488;13.436;2023-05-20T05:56:08;1.97;;;1.87;;
11238;SDS011;5677;48.488;13.436;2023-05-20T05:58:36;1.93;;;1.83;;
11238;SDS011;5677;48.488;13.436;2023-05-20T06:01:03;1.70;;;1.60;;
11238;SDS011;5677;48.488;13.436;2023-05-20T06:03:30;1.90;;;1.80;;
11238;SDS011;5677;48.488;13.436;2023-05-20T06:05:56;1.70;;;1.60;;
11238;SDS011;5677;48.488;13.436;2023-05-20T06:08:23;1.80;;;1.70;;
11238;SDS011;5677;48.488;13.436;2023-05-20T06:10:50;2.10;;;2.00;;
11238;SDS011;5677;48.488;13.436;2023-05-20T06:13:17;1.70;;;1.60;;
11238;SDS011;5677;48.488;13.436;2023-05-20T06:15:45;2.00;;;1.80;;
11238;SDS011;5677;48.488;13.436;2023-05-20T06:18:13;1.80;;;1.70;;
11238;SDS011;5677;48.488;13.436;2023-05-20T06:20:40;1.97;;;1.87;;
11238;SDS011;5677;48.488;13.436;2023-05-20T06:23:07;1.80;;;1.70;;
11238;SDS011;5677;48.488;13.436;2023-05-20T06:25:34;1.80;;;1.70;;
11238;SDS011;5677;48.488;13.436;2023-05-20T06:28:00;1.70;;;1.60;;
11238;SDS011;5677;48.488;13.436;2023-05-20T06:30:27;3.40;;;1.80;;
11238;SDS011;5677;48.488;13.436;2023-05-20T06:32:55;1.90;;;1.80;;
11238;SDS011;5677;48.488;13.436;2023-05-20T06:35:22;2.20;;;2.00;;
11238;SDS011;5677;48.488;13.436;2023-05-20T06:37:48;2.07;;;1.90;;
11238;SDS011;5677;48.488;13.436;2023-05-20T06:40:15;1.90;;;1.80;;
11238;SDS011;5677;48.488;13.436;2023-05-20T06:42:43;1.60;;;1.50;;
11238;SDS011;5677;48.488;13.436;2023-05-20T06:45:10;1.90;;;1.80;;
11238;SDS011;5677;48.488;13.436;2023-05-20T06:47:37;1.83;;;1.73;;
11238;SDS011;5677;48.488;13.436;2023-05-20T06:50:06;1.60;;;1.50;;
11238;SDS011;5677;48.488;13.436;2023-05-20T06:52:33;4.00;;;2.23;;
11238;SDS011;5677;48.488;13.436;2023-05-20T06:55:00;1.80;;;1.70;;
11238;SDS011;5677;48.488;13.436;2023-05-20T06:57:27;2.33;;;1.97;;
11238;SDS011;5677;48.488;13.436;2023-05-20T06:59:53;1.80;;;1.70;;
11238;SDS011;5677;48.488;13.436;2023-05-20T07:02:20;1.93;;;1.80;;
11238;SDS011;5677;48.488;13.436;2023-05-20T07:04:47;1.97;;;1.87;;
11238;SDS011;5677;48.488;13.436;2023-05-20T07:07:15;2.13;;;1.93;;
11238;SDS011;5677;48.488;13.436;2023-05-20T07:09:42;2.20;;;2.00;;
11238;SDS011;5677;48.488;13.436;2023-05-20T07:12:09;1.90;;;1.80;;
11238;SDS011;5677;48.488;13.436;2023-05-20T07:14:35;1.90;;;1.80;;
11238;SDS011;5677;48.488;13.436;2023-05-20T07:17:03;2.40;;;2.13;;
11238;SDS011;5677;48.488;13.436;2023-05-20T07:19:30;2.27;;;2.07;;
11238;SDS011;5677;48.488;13.436;2023-05-20T07:21:57;1.87;;;1.77;;
11238;SDS011;5677;48.488;13.436;2023-05-20T07:24:25;2.10;;;2.00;;
11238;SDS011;5677;48.488;13.436;2023-05-20T07:26:52;2.37;;;2.17;;
11238;SDS011;5677;48.488;13.436;2023-05-20T07:29:19;2.10;;;2.00;;
11238;SDS011;5677;48.488;13.436;2023-05-20T07:31:46;2.20;;;2.00;;
11238;SDS011;5677;48.488;13.436;2023-05-20T07:34:13;2.20;;;2.00;;
11238;SDS011;5677;48.488;13.436;2023-05-20T07:36:40;2.03;;;1.93;;
11238;SDS011;5677;48.488;13.436;2023-05-20T07:39:07;2.13;;;1.80;;
11238;SDS011;5677;48.488;13.436;2023-05-20T07:41:36;2.00;;;1.90;;
11238;SDS011;5677;48.488;13.436;2023-05-20T07:44:03;2.33;;;1.80;;
11238;SDS011;5677;48.488;13.436;2023-05-20T07:46:32;2.40;;;2.20;;
11238;SDS011;5677;48.488;13.436;2023-05-20T07:48:59;1.60;;;1.50;;
11238;SDS011;5677;48.488;13.436;2023-05-20T07:51:26;1.97;;;1.87;;
11238;SDS011;5677;48.488;13.436;2023-05-20T07:53:53;2.37;;;2.17;;
11238;SDS011;5677;48.488;13.436;2023-05-20T07:56:20;1.80;;;1.70;;
11238;SDS011;5677;48.488;13.436;2023-05-20T07:58:52;2.13;;;2.03;;
11238;SDS011;5677;48.488;13.436;2023-05-20T08:01:19;1.87;;;1.77;;
11238;SDS011;5677;48.488;13.436;2023-05-20T08:03:46;2.40;;;2.20;;
11238;SDS011;5677;48.488;13.436;2023-05-20T08:06:13;2.13;;;1.90;;
11238;SDS011;5677;48.488;13.436;2023-05-20T08:08:40;1.90;;;1.80;;
11238;SDS011;5677;48.488;13.436;2023-05-20T08:11:07;1.70;;;1.60;;
11238;SDS011;5677;48.488;13.436;2023-05-20T08:13:33;2.00;;;1.90;;
11238;SDS011;5677;48.488;13.436;2023-05-20T08:16:02;1.97;;;1.87;;
11238;SDS011;5677;48.488;13.436;2023-05-20T08:18:29;2.30;;;2.10;;
11238;SDS011;5677;48.488;13.436;2023-05-20T08:20:57;2.07;;;1.93;;
11238;SDS011;5677;48.488;13.436;2023-05-20T08:23:24;2.10;;;2.00;;
11238;SDS011;5677;48.488;13.436;2023-05-20T08:25:51;1.80;;;1.70;;
11238;SDS011;5677;48.488;13.436;2023-05-20T08:28:18;2.00;;;1.90;;
11238;SDS011;5677;48.488;13.436;2023-05-20T08:30:46;2.30;;;2.10;;
11238;SDS011;5677;48.488;13.436;2023-05-20T08:33:14;1.97;;;1.87;;
11238;SDS011;5677;48.488;13.436;2023-05-20T08:35:43;2.20;;;2.00;;
11238;SDS011;5677;48.488;13.436;2023-05-20T08:38:10;2.13;;;2.00;;
11238;SDS011;5677;48.488;13.436;2023-05-20T08:40:37;2.13;;;1.93;;
11238;SDS011;5677;48.488;13.436;2023-05-20T08:43:03;2.40;;;2.20;;
11238;SDS011;5677;48.488;13.436;2023-05-20T08:45:31;2.10;;;2.00;;
11238;SDS011;5677;48.488;13.436;2023-05-20T08:47:59;2.10;;;1.90;;
11238;SDS011;5677;48.488;13.436;2023-05-20T08:50:30;2.57;;;2.37;;
11238;SDS011;5677;48.488;13.436;2023-05-20T08:52:57;2.30;;;2.10;;
11238;SDS011;5677;48.488;13.436;2023-05-20T08:55:25;2.20;;;2.00;;
11238;SDS011;5677;48.488;13.436;2023-05-20T08:57:58;2.40;;;2.20;;
11238;SDS011;5677;48.488;13.436;2023-05-20T09:00:25;2.03;;;1.93;;
11238;SDS011;5677;48.488;13.436;2023-05-20T09:02:52;2.20;;;2.00;;
11238;SDS011;5677;48.488;13.436;2023-05-20T09:05:19;2.40;;;2.20;;
11238;SDS011;5677;48.488;13.436;2023-05-20T09:07:48;2.50;;;2.30;;
11238;SDS011;5677;48.488;13.436;2023-05-20T09:10:14;2.13;;;2.00;;
11238;SDS011;5677;48.488;13.436;2023-05-20T09:12:41;2.70;;;2.50;;
11238;SDS011;5677;48.488;13.436;2023-05-20T09:15:08;2.20;;;2.00;;
11238;SDS011;5677;48.488;13.436;2023-05-20T09:17:35;2.27;;;2.17;;
11238;SDS011;5677;48.488;13.436;2023-05-20T09:20:04;2.23;;;2.03;;
11238;SDS011;5677;48.488;13.436;2023-05-20T09:22:33;2.50;;;2.00;;
11238;SDS011;5677;48.488;13.436;2023-05-20T09:25:01;2.37;;;2.17;;
11238;SDS011;5677;48.488;13.436;2023-05-20T09:27:29;2.43;;;2.23;;
11238;SDS011;5677;48.488;13.436;2023-05-20T09:29:56;2.00;;;1.90;;
11238;SDS011;5677;48.488;13.436;2023-05-20T09:32:22;2.00;;;1.90;;
11238;SDS011;5677;48.488;13.436;2023-05-20T09:34:52;2.27;;;2.10;;
11238;SDS011;5677;48.488;13.436;2023-05-20T09:37:20;2.30;;;2.10;;
11238;SDS011;5677;48.488;13.436;2023-05-20T09:39:54;2.30;;;2.10;;
11238;SDS011;5677;48.488;13.436;2023-05-20T09:42:26;2.30;;;2.10;;
11238;SDS011;5677;48.488;13.436;2023-05-20T09:44:56;2.50;;;2.30;;
11238;SDS011;5677;48.488;13.436;2023-05-20T09:47:24;3.43;;;2.10;;
11238;SDS011;5677;48.488;13.436;2023-05-20T09:49:52;2.50;;;2.30;;
11238;SDS011;5677;48.488;13.436;2023-05-20T09:52:19;2.37;;;2.13;;
11238;SDS011;5677;48.488;13.436;2023-05-20T09:54:46;2.33;;;2.13;;
11238;SDS011;5677;48.488;13.436;2023-05-20T09:57:14;2.40;;;2.20;;
11238;SDS011;5677;48.488;13.436;2023-05-20T09:59:42;2.13;;;1.93;;
11238;SDS011;5677;48.488;13.436;2023-05-20T10:02:10;2.43;;;2.23;;
11238;SDS011;5677;48.488;13.436;2023-05-20T10:04:38;2.17;;;1.97;;
11238;SDS011;5677;48.488;13.436;2023-05-20T10:07:17;3.03;;;2.57;;
11238;SDS011;5677;48.488;13.436;2023-05-20T10:09:58;2.20;;;2.00;;
11238;SDS011;5677;48.488;13.436;2023-05-20T10:12:36;2.57;;;2.30;;
11238;SDS011;5677;48.488;13.436;2023-05-20T10:15:14;2.53;;;2.33;;
11238;SDS011;5677;48.488;13.436;2023-05-20T10:17:52;2.60;;;2.40;;
11238;SDS011;5677;48.488;13.436;2023-05-20T10:20:27;2.27;;;2.07;;
11238;SDS011;5677;48.488;13.436;2023-05-20T10:22:54;2.77;;;2.57;;
11238;SDS011;5677;48.488;13.436;2023-05-20T10:25:23;2.03;;;1.93;;
11238;SDS011;5677;48.488;13.436;2023-05-20T10:28:02;2.57;;;2.37;;
11238;SDS011;5677;48.488;13.436;2023-05-20T10:30:33;2.57;;;2.37;;
11238;SDS011;5677;48.488;13.436;2023-05-20T10:33:02;2.70;;;2.50;;
11238;SDS011;5677;48.488;13.436;2023-05-20T10:35:30;2.23;;;2.03;;
11238;SDS011;5677;48.488;13.436;2023-05-20T10:38:05;2.77;;;2.57;;
11238;SDS011;5677;48.488;13.436;2023-05-20T10:40:34;2.27;;;2.07;;
11238;SDS011;5677;48.488;13.436;2023-05-20T10:43:07;2.40;;;2.20;;
11238;SDS011;5677;48.488;13.436;2023-05-20T10:45:46;2.40;;;2.20;;
11238;SDS011;5677;48.488;13.436;2023-05-20T10:48:18;2.30;;;2.10;;
11238;SDS011;5677;48.488;13.436;2023-05-20T10:50:46;2.80;;;2.50;;
11238;SDS011;5677;48.488;13.436;2023-05-20T10:53:13;2.83;;;2.53;;
11238;SDS011;5677;48.488;13.436;2023-05-20T10:55:45;2.63;;;2.43;;
11238;SDS011;5677;48.488;13.436;2023-05-20T10:58:15;2.83;;;2.53;;
11238;SDS011;5677;48.488;13.436;2023-05-20T11:00:43;2.30;;;2.10;;
11238;SDS011;5677;48.488;13.436;2023-05-20T11:03:10;2.47;;;2.27;;
11238;SDS011;5677;48.488;13.436;2023-05-20T11:05:38;2.80;;;2.60;;
11238;SDS011;5677;48.488;13.436;2023-05-20T11:08:06;2.30;;;2.10;;
11238;SDS011;5677;48.488;13.436;2023-05-20T11:10:34;2.40;;;2.20;;
11238;SDS011;5677;48.488;13.436;2023-05-20T11:13:01;2.67;;;2.47;;
11238;SDS011;5677;48.488;13.436;2023-05-20T11:15:29;2.40;;;2.20;;
11238;SDS011;5677;48.488;13.436;2023-05-20T11:17:59;2.63;;;2.43;;
11238;SDS011;5677;48.488;13.436;2023-05-20T11:20:27;2.90;;;2.70;;
11238;SDS011;5677;48.488;13.436;2023-05-20T11:22:54;2.90;;;2.60;;
11238;SDS011;5677;48.488;13.436;2023-05-20T11:25:21;2.30;;;2.10;;
11238;SDS011;5677;48.488;13.436;2023-05-20T11:27:48;2.57;;;2.37;;
11238;SDS011;5677;48.488;13.436;2023-05-20T11:30:16;2.50;;;2.30;;
11238;SDS011;5677;48.488;13.436;2023-05-20T11:32:54;2.90;;;2.60;;
11238;SDS011;5677;48.488;13.436;2023-05-20T11:35:23;2.40;;;2.20;;
11238;SDS011;5677;48.488;13.436;2023-05-20T11:37:55;2.67;;;2.43;;
11238;SDS011;5677;48.488;13.436;2023-05-20T11:40:23;2.60;;;2.40;;
11238;SDS011;5677;48.488;13.436;2023-05-20T11:42:54;2.67;;;2.47;;
11238;SDS011;5677;48.488;13.436;2023-05-20T11:45:22;2.60;;;2.40;;
11238;SDS011;5677;48.488;13.436;2023-05-20T11:47:59;2.60;;;2.40;;
11238;SDS011;5677;48.488;13.436;2023-05-20T11:50:28;2.40;;;2.20;;
11238;SDS011;5677;48.488;13.436;2023-05-20T11:52:59;2.60;;;2.40;;
11238;SDS011;5677;48.488;13.436;2023-05-20T11:55:27;2.40;;;2.20;;
11238;SDS011;5677;48.488;13.436;2023-05-20T11:57:54;2.80;;;2.60;;
11238;SDS011;5677;48.488;13.436;2023-05-20T12:00:21;2.60;;;2.40;;
11238;SDS011;5677;48.488;13.436;2023-05-20T12:02:48;2.53;;;2.33;;
11238;SDS011;5677;48.488;13.436;2023-05-20T12:05:15;2.40;;;2.20;;
11238;SDS011;5677;48.488;13.436;2023-05-20T12:07:43;2.60;;;2.40;;
11238;SDS011;5677;48.488;13.436;2023-05-20T12:10:10;2.43;;;2.23;;
11238;SDS011;5677;48.488;13.436;2023-05-20T12:12:37;2.60;;;2.40;;
11238;SDS011;5677;48.488;13.436;2023-05-20T12:15:04;3.40;;;2.20;;
11238;SDS011;5677;48.488;13.436;2023-05-20T12:17:42;2.47;;;2.27;;
11238;SDS011;5677;48.488;13.436;2023-05-20T12:20:11;2.67;;;2.47;;
11238;SDS011;5677;48.488;13.436;2023-05-20T12:22:39;2.40;;;2.20;;
11238;SDS011;5677;48.488;13.436;2023-05-20T12:25:08;2.67;;;2.47;;
11238;SDS011;5677;48.488;13.436;2023-05-20T12:27:35;2.47;;;2.27;;
11238;SDS011;5677;48.488;13.436;2023-05-20T12:30:02;2.83;;;2.60;;
11238;SDS011;5677;48.488;13.436;2023-05-20T12:32:30;2.77;;;2.57;;
11238;SDS011;5677;48.488;13.436;2023-05-20T12:34:56;2.43;;;2.27;;
11238;SDS011;5677;48.488;13.436;2023-05-20T12:37:23;2.50;;;2.30;;
11238;SDS011;5677;48.488;13.436;2023-05-20T12:39:50;3.00;;;2.70;;
11238;SDS011;5677;48.488;13.436;2023-05-20T12:42:18;3.00;;;2.70;;
11238;SDS011;5677;48.488;13.436;2023-05-20T12:44:45;2.77;;;2.57;;
11238;SDS011;5677;48.488;13.436;2023-05-20T12:47:11;2.70;;;2.50;;
11238;SDS011;5677;48.488;13.436;2023-05-20T12:49:38;2.97;;;2.67;;
11238;SDS011;5677;48.488;13.436;2023-05-20T12:52:05;2.60;;;2.40;;
11238;SDS011;5677;48.488;13.436;2023-05-20T12:54:32;2.93;;;2.63;;
11238;SDS011;5677;48.488;13.436;2023-05-20T12:56:59;2.93;;;2.73;;
11238;SDS011;5677;48.488;13.436;2023-05-20T12:59:27;2.87;;;2.60;;
11238;SDS011;5677;48.488;13.436;2023-05-20T13:01:54;2.33;;;2.13;;
11238;SDS011;5677;48.488;13.436;2023-05-20T13:04:21;2.90;;;2.70;;
11238;SDS011;5677;48.488;13.436;2023-05-20T13:06:48;2.27;;;2.07;;
11238;SDS011;5677;48.488;13.436;2023-05-20T13:09:15;2.93;;;2.67;;
11238;SDS011;5677;48.488;13.436;2023-05-20T13:11:42;2.43;;;2.23;;
11238;SDS011;5677;48.488;13.436;2023-05-20T13:14:09;2.67;;;2.47;;
11238;SDS011;5677;48.488;13.436;2023-05-20T13:16:37;2.60;;;2.40;;
11238;SDS011;5677;48.488;13.436;2023-05-20T13:19:04;2.63;;;2.43;;
11238;SDS011;5677;48.488;13.436;2023-05-20T13:21:31;2.70;;;2.50;;
11238;SDS011;5677;48.488;13.436;2023-05-20T13:23:58;2.63;;;2.43;;
11238;SDS011;5677;48.488;13.436;2023-05-20T13:26:26;3.00;;;2.77;;
11238;SDS011;5677;48.488;13.436;2023-05-20T13:28:53;2.50;;;2.30;;
11238;SDS011;5677;48.488;13.436;2023-05-20T13:31:19;2.60;;;2.40;;
11238;SDS011;5677;48.488;13.436;2023-05-20T13:33:47;2.70;;;2.50;;
11238;SDS011;5677;48.488;13.436;2023-05-20T13:36:14;2.70;;;2.50;;
11238;SDS011;5677;48.488;13.436;2023-05-20T13:38:41;2.80;;;2.60;;
11238;SDS011;5677;48.488;13.436;2023-05-20T13:41:07;2.83;;;2.63;;
11238;SDS011;5677;48.488;13.436;2023-05-20T13:43:34;3.20;;;2.83;;
11238;SDS011;5677;48.488;13.436;2023-05-20T13:46:01;2.93;;;2.70;;
11238;SDS011;5677;48.488;13.436;2023-05-20T13:48:27;3.00;;;2.63;;
11238;SDS011;5677;48.488;13.436;2023-05-20T13:50:55;2.70;;;2.50;;
11238;SDS011;5677;48.488;13.436;2023-05-20T13:53:22;2.80;;;2.60;;
11238;SDS011;5677;48.488;13.436;2023-05-20T13:55:49;2.60;;;2.40;;
11238;SDS011;5677;48.488;13.436;2023-05-20T13:58:15;2.60;;;2.40;;
11238;SDS011;5677;48.488;13.436;2023-05-20T14:00:42;2.70;;;2.47;;
11238;SDS011;5677;48.488;13.436;2023-05-20T14:03:09;2.80;;;2.60;;
11238;SDS011;5677;48.488;13.436;2023-05-20T14:05:36;2.60;;;2.40;;
11238;SDS011;5677;48.488;13.436;2023-05-20T14:08:04;2.77;;;2.43;;
11238;SDS011;5677;48.488;13.436;2023-05-20T14:10:31;3.03;;;2.80;;
11238;SDS011;5677;48.488;13.436;2023-05-20T14:12:58;2.57;;;2.37;;
11238;SDS011;5677;48.488;13.436;2023-05-20T14:15:26;3.00;;;2.70;;
11238;SDS011;5677;48.488;13.436;2023-05-20T14:17:54;3.07;;;2.77;;
11238;SDS011;5677;48.488;13.436;2023-05-20T14:20:22;3.40;;;3.10;;
11238;SDS011;5677;48.488;13.436;2023-05-20T14:22:48;3.10;;;2.80;;
11238;SDS011;5677;48.488;13.436;2023-05-20T14:25:16;2.77;;;2.57;;
11238;SDS011;5677;48.488;13.436;2023-05-20T14:27:43;2.70;;;2.50;;
11238;SDS011;5677;48.488;13.436;2023-05-20T14:30:10;3.00;;;2.67;;
11238;SDS011;5677;48.488;13.436;2023-05-20T14:32:37;3.00;;;2.70;;
11238;SDS011;5677;48.488;13.436;2023-05-20T14:35:04;2.83;;;2.63;;
11238;SDS011;5677;48.488;13.436;2023-05-20T14:37:32;3.17;;;2.87;;
11238;SDS011;5677;48.488;13.436;2023-05-20T14:39:59;3.10;;;2.80;;
11238;SDS011;5677;48.488;13.436;2023-05-20T14:42:27;3.10;;;2.80;;
11238;SDS011;5677;48.488;13.436;2023-05-20T14:44:54;2.97;;;2.70;;
11238;SDS011;5677;48.488;13.436;2023-05-20T14:47:20;2.53;;;2.33;;
11238;SDS011;5677;48.488;13.436;2023-05-20T14:49:47;3.10;;;2.80;;
11238;SDS011;5677;48.488;13.436;2023-05-20T14:52:15;2.87;;;2.43;;